Time;durP1;ratioP1;P1;durP2;ratioP2;P2;SDS_P1;SDS_P2;PMS_P1;PMS_P2;Temp;Humidity;BMP_temperature;BMP_pressure;BME280_temperature;BME280_humidity;BME280_pressure;Samples;Min_cycle;Max_cycle;Signal;HPM_P1;HPM_P2
2022/07/07 00:01:50;;;;;;;2.90;1.10;;;;;;;17.93;52.82;97347.00;10393222;28;20569;-23
2022/07/07 00:06:51;;;;;;;5.57;1.77;;;;;;;17.90;52.78;97340.19;10389580;28;20288;-25
2022/07/07 00:11:51;;;;;;;2.10;0.93;;;;;;;17.87;53.11;97339.31;10393689;28;20826;-25
2022/07/07 00:16:52;;;;;;;3.75;1.10;;;;;;;17.87;52.91;97334.25;10386949;28;20426;-23
2022/07/07 00:21:52;;;;;;;3.92;1.10;;;;;;;17.86;52.67;97340.16;10390521;28;20172;-24
2022/07/07 00:26:53;;;;;;;1.52;1.00;;;;;;;17.80;53.04;97330.78;10393113;28;20025;-25
2022/07/07 00:31:53;;;;;;;4.13;1.23;;;;;;;17.79;52.83;97318.09;10389958;28;20032;-24
2022/07/07 00:36:54;;;;;;;2.93;1.10;;;;;;;17.75;52.86;97318.91;10394327;28;20124;-23
2022/07/07 00:41:54;;;;;;;3.10;1.20;;;;;;;17.72;52.99;97321.38;10394392;28;20280;-24
2022/07/07 00:46:57;;;;;;;2.25;0.93;;;;;;;17.66;53.10;97336.53;10390774;28;20287;-23
2022/07/07 00:51:59;;;;;;;2.70;1.20;;;;;;;17.63;53.47;97339.00;10387535;28;20327;-23
2022/07/07 00:56:59;;;;;;;2.08;1.08;;;;;;;17.61;53.41;97335.59;10397374;28;20025;-23
2022/07/07 01:02:01;;;;;;;2.55;1.38;;;;;;;17.64;53.34;97343.22;10391138;28;20063;-21
2022/07/07 01:07:02;;;;;;;2.80;1.27;;;;;;;17.57;53.46;97332.19;10387833;28;20037;-22
2022/07/07 01:12:03;;;;;;;2.65;1.23;;;;;;;17.55;53.70;97338.03;10387461;28;20447;-23
2022/07/07 01:17:04;;;;;;;2.50;1.08;;;;;;;17.49;53.67;97332.91;10386341;28;20033;-25
2022/07/07 01:22:11;;;;;;;1.30;1.17;;;;;;;17.55;53.39;97332.97;10391953;28;20041;-22
2022/07/07 01:27:17;;;;;;;2.97;1.15;;;;;;;17.58;52.88;97318.69;10394386;28;20033;-22
2022/07/07 01:32:19;;;;;;;3.10;0.90;;;;;;;17.57;52.57;97304.31;10388853;28;20108;-26
2022/07/07 01:37:20;;;;;;;4.65;1.17;;;;;;;17.63;52.38;97316.22;10393814;28;20087;-22
2022/07/07 01:42:21;;;;;;;2.10;1.13;;;;;;;17.57;52.51;97298.44;10390455;28;20033;-23
2022/07/07 01:47:23;;;;;;;3.50;1.20;;;;;;;17.55;52.53;97282.34;10389335;28;20049;-24
2022/07/07 01:52:23;;;;;;;3.40;0.98;;;;;;;17.52;52.65;97262.94;10391318;28;20032;-23
2022/07/07 01:57:24;;;;;;;3.43;1.00;;;;;;;17.57;52.60;97261.28;10394419;28;20037;-24
2022/07/07 02:02:24;;;;;;;4.57;0.87;;;;;;;17.59;52.57;97276.50;10396987;28;20040;-24
2022/07/07 02:07:25;;;;;;;1.70;0.90;;;;;;;17.45;53.00;97280.53;10395263;28;20297;-24
2022/07/07 02:12:25;;;;;;;4.53;1.53;;;;;;;17.35;53.16;97282.09;10392622;28;20060;-23
2022/07/07 02:17:26;;;;;;;2.95;1.13;;;;;;;17.34;53.22;97282.06;10392358;28;20148;-23
2022/07/07 02:22:26;;;;;;;2.85;1.23;;;;;;;17.34;53.32;97277.00;10395013;28;20026;-24
2022/07/07 02:27:26;;;;;;;2.97;1.13;;;;;;;17.31;53.16;97259.25;10398933;28;20037;-23
2022/07/07 02:32:27;;;;;;;1.97;0.97;;;;;;;17.32;53.14;97259.25;10395701;28;20029;-22
2022/07/07 02:37:28;;;;;;;1.10;0.80;;;;;;;17.33;52.96;97255.03;10393186;28;20039;-22
2022/07/07 02:42:28;;;;;;;4.55;1.48;;;;;;;17.29;53.23;97268.47;10395302;28;20507;-22
2022/07/07 02:47:28;;;;;;;1.87;1.27;;;;;;;17.24;53.12;97260.81;10394831;28;20063;-25
2022/07/07 02:52:29;;;;;;;7.33;1.23;;;;;;;17.26;53.24;97265.91;10397842;28;20025;-23
2022/07/07 02:57:29;;;;;;;2.25;1.00;;;;;;;17.24;53.64;97262.53;10398899;28;20771;-24
2022/07/07 03:02:29;;;;;;;2.53;1.00;;;;;;;17.19;53.70;97267.53;10393295;28;20033;-23
2022/07/07 03:07:30;;;;;;;3.67;0.90;;;;;;;17.15;53.89;97285.16;10398355;28;20041;-22
2022/07/07 03:12:30;;;;;;;4.10;0.90;;;;;;;17.15;53.59;97280.13;10390590;28;20046;-23
2022/07/07 03:17:31;;;;;;;1.40;1.13;;;;;;;17.13;53.62;97286.81;10389835;28;20181;-22
2022/07/07 03:22:31;;;;;;;1.98;1.02;;;;;;;17.11;53.90;97291.88;10384752;28;20300;-23
2022/07/07 03:27:32;;;;;;;1.60;0.80;;;;;;;17.12;53.40;97285.09;10394824;28;20040;-22
2022/07/07 03:32:33;;;;;;;1.35;1.10;;;;;;;17.11;53.42;97299.47;10392587;28;20033;-22
2022/07/07 03:37:34;;;;;;;1.52;0.88;;;;;;;17.11;53.52;97291.00;10397858;28;20193;-23
2022/07/07 03:42:36;;;;;;;1.63;0.90;;;;;;;17.15;53.32;97296.13;10394342;28;20030;-22
2022/07/07 03:47:37;;;;;;;2.13;0.82;;;;;;;17.07;53.35;97282.50;10393783;28;20064;-22
2022/07/07 03:52:37;;;;;;;5.13;1.30;;;;;;;17.29;53.12;97279.47;10393056;28;20124;-22
2022/07/07 03:57:38;;;;;;;2.40;1.00;;;;;;;17.46;52.12;97282.22;10390364;28;20289;-22
2022/07/07 04:02:38;;;;;;;2.47;0.82;;;;;;;17.44;52.02;97261.97;10391456;28;20297;-22
2022/07/07 04:07:39;;;;;;;1.97;0.80;;;;;;;17.41;52.39;97268.69;10395499;28;20097;-23
2022/07/07 04:12:39;;;;;;;2.77;0.97;;;;;;;17.38;52.52;97264.44;10387826;28;20481;-22
2022/07/07 04:17:39;;;;;;;2.87;1.00;;;;;;;17.31;52.82;97255.03;10367180;28;20626;-23
2022/07/07 04:22:40;;;;;;;3.70;1.37;;;;;;;17.33;53.10;97247.47;10387277;28;20300;-22
2022/07/07 04:27:40;;;;;;;1.17;0.90;;;;;;;17.31;53.20;97242.38;10382007;28;20056;-24
2022/07/07 04:32:41;;;;;;;1.70;1.17;;;;;;;17.37;53.29;97226.44;10389099;28;20054;-23
2022/07/07 04:37:41;;;;;;;3.28;1.25;;;;;;;17.37;53.18;97221.38;10395374;28;20044;-23
2022/07/07 04:42:42;;;;;;;1.53;0.90;;;;;;;17.36;53.18;97238.25;10389859;28;20056;-23
2022/07/07 04:47:42;;;;;;;1.70;0.83;;;;;;;17.31;53.31;97252.50;10397632;28;20285;-22
2022/07/07 04:52:43;;;;;;;2.65;1.10;;;;;;;17.28;53.60;97260.06;10372550;28;20030;-22
2022/07/07 04:57:43;;;;;;;2.05;1.20;;;;;;;18.16;51.89;97252.66;10392902;28;20049;-23
2022/07/07 05:02:44;;;;;;;5.73;1.17;;;;;;;18.50;50.92;97256.38;10387550;28;20085;-22
2022/07/07 05:07:44;;;;;;;2.77;1.03;;;;;;;18.63;50.41;97242.94;10387929;28;20297;-22
2022/07/07 05:12:44;;;;;;;9.87;1.70;;;;;;;18.74;50.41;97256.59;10385439;28;20041;-24
2022/07/07 05:17:45;;;;;;;2.33;1.10;;;;;;;18.84;50.36;97263.41;10397928;28;20778;-24
2022/07/07 05:22:45;;;;;;;2.03;1.03;;;;;;;18.87;50.31;97265.97;10390470;28;20486;-23
2022/07/07 05:27:45;;;;;;;2.70;0.90;;;;;;;18.95;50.86;97256.72;10400942;28;20408;-22
2022/07/07 05:32:46;;;;;;;10.57;2.57;;;;;;;18.96;50.40;97248.25;10395255;28;20492;-21
2022/07/07 05:37:47;;;;;;;6.68;1.40;;;;;;;18.97;50.75;97250.81;10403788;28;20072;-21
2022/07/07 05:42:47;;;;;;;2.13;0.97;;;;;;;19.04;50.56;97256.78;10396549;28;20038;-21
2022/07/07 05:47:47;;;;;;;3.27;1.10;;;;;;;19.08;50.58;97268.66;10398939;28;20358;-22
2022/07/07 05:52:48;;;;;;;1.60;0.90;;;;;;;19.17;50.60;97263.63;10395231;28;20041;-21
2022/07/07 05:57:48;;;;;;;3.30;0.80;;;;;;;19.23;50.63;97258.59;10400342;28;20459;-21
2022/07/07 06:02:49;;;;;;;2.10;1.30;;;;;;;19.24;50.51;97260.34;10395336;28;20395;-23
2022/07/07 06:07:49;;;;;;;2.75;0.80;;;;;;;19.21;50.87;97255.22;10398872;28;20044;-22
2022/07/07 06:12:49;;;;;;;1.47;0.80;;;;;;;19.23;51.00;97258.59;10388138;28;20021;-21
2022/07/07 06:17:50;;;;;;;1.37;1.10;;;;;;;19.23;50.91;97256.94;10403134;28;20037;-21
2022/07/07 06:22:50;;;;;;;2.65;0.93;;;;;;;19.26;51.06;97248.50;10394972;28;20091;-23
2022/07/07 06:27:51;;;;;;;0.93;0.70;;;;;;;19.27;51.16;97250.19;10398373;28;20495;-23
2022/07/07 06:32:51;;;;;;;0.90;0.70;;;;;;;19.28;51.24;97241.72;10400458;28;20033;-22
2022/07/07 06:37:53;;;;;;;2.13;1.00;;;;;;;19.29;51.20;97249.34;10397421;28;20120;-21
2022/07/07 06:42:53;;;;;;;1.38;0.70;;;;;;;19.30;51.16;97245.09;10395795;28;20124;-22
2022/07/07 06:48:01;;;;;;;6.13;1.13;;;;;;;19.36;51.09;97245.16;10401094;28;20053;-22
2022/07/07 06:53:01;;;;;;;3.47;1.07;;;;;;;19.44;50.56;97251.13;10388274;28;20077;-23
2022/07/07 06:58:05;;;;;;;1.50;0.93;;;;;;;19.41;50.90;97254.47;10395772;28;20029;-22
2022/07/07 07:03:06;;;;;;;2.05;0.70;;;;;;;19.38;51.14;97258.69;10399195;28;20655;-22
2022/07/07 07:08:07;;;;;;;2.08;0.88;;;;;;;19.38;51.18;97253.63;10390473;28;20056;-21
2022/07/07 07:13:07;;;;;;;3.28;1.05;;;;;;;19.38;51.21;97258.69;10388872;28;20446;-22
2022/07/07 07:18:08;;;;;;;1.33;0.87;;;;;;;19.39;51.20;97260.38;10399380;28;20068;-22
2022/07/07 07:23:09;;;;;;;1.63;0.65;;;;;;;19.39;51.31;97265.47;10391616;28;20809;-21
2022/07/07 07:28:09;;;;;;;1.00;0.80;;;;;;;19.40;51.49;97255.31;10395646;28;20042;-22
2022/07/07 07:33:10;;;;;;;1.23;0.93;;;;;;;19.39;51.46;97263.78;10391593;28;20038;-22
2022/07/07 07:38:10;;;;;;;1.00;0.68;;;;;;;19.41;51.74;97284.13;10391797;28;20058;-22
2022/07/07 07:43:10;;;;;;;2.63;0.80;;;;;;;19.44;51.64;97279.03;10394203;28;20026;-22
2022/07/07 07:48:11;;;;;;;1.40;0.93;;;;;;;19.55;51.22;97273.19;10399208;28;20055;-22
2022/07/07 07:53:11;;;;;;;0.77;0.70;;;;;;;19.58;51.29;97280.81;10393673;28;20025;-22
2022/07/07 07:58:12;;;;;;;1.20;0.65;;;;;;;19.53;51.60;97286.72;10389462;28;20025;-22
2022/07/07 08:03:12;;;;;;;1.23;0.70;;;;;;;19.49;51.82;97277.41;10395533;28;20036;-21
2022/07/07 08:08:13;;;;;;;0.90;0.70;;;;;;;19.48;51.85;97290.91;10387259;28;20095;-22
2022/07/07 08:13:13;;;;;;;1.23;0.90;;;;;;;19.48;52.00;97290.91;10386621;28;20292;-22
2022/07/07 08:18:13;;;;;;;1.20;0.60;;;;;;;19.48;51.93;97291.75;10395907;28;20048;-23
2022/07/07 08:23:14;;;;;;;1.30;0.70;;;;;;;19.48;52.04;97284.16;10394986;28;20396;-24
2022/07/07 08:28:14;;;;;;;1.40;0.80;;;;;;;19.50;52.04;97279.09;10395770;28;20038;-23
2022/07/07 08:33:16;;;;;;;2.37;0.87;;;;;;;19.49;52.24;97283.31;10389033;28;20061;-23
2022/07/07 08:38:16;;;;;;;1.13;0.57;;;;;;;19.50;51.72;97289.25;10395021;28;20103;-22
2022/07/07 08:43:18;;;;;;;2.07;0.97;;;;;;;19.63;52.12;97270.66;10397422;28;20033;-23
2022/07/07 08:48:21;;;;;;;2.47;0.85;;;;;;;19.69;52.02;97260.53;10395131;28;20048;-21
2022/07/07 08:53:23;;;;;;;1.38;0.75;;;;;;;19.63;52.10;97260.50;10387542;28;20084;-22
2022/07/07 08:58:24;;;;;;;0.85;0.63;;;;;;;19.58;52.35;97262.19;10391700;28;20030;-23
2022/07/07 09:03:26;;;;;;;0.95;0.50;;;;;;;19.54;52.28;97255.38;10393195;28;20030;-23
2022/07/07 09:08:28;;;;;;;0.70;0.52;;;;;;;19.57;52.19;97265.53;10394245;28;20465;-22
2022/07/07 09:13:32;;;;;;;1.67;0.80;;;;;;;19.58;52.74;97272.34;10393107;28;20451;-22
2022/07/07 09:18:35;;;;;;;0.65;0.52;;;;;;;19.57;52.54;97288.41;10385463;28;20083;-23
2022/07/07 09:23:51;;;;;;;1.02;0.80;;;;;;;19.57;52.67;97290.94;10391455;28;20044;-22
2022/07/07 09:28:58;;;;;;;1.15;0.68;;;;;;;19.57;52.62;97288.41;10396889;28;20045;-23
2022/07/07 09:34:13;;;;;;;0.80;0.50;;;;;;;19.53;52.73;97286.72;10389588;28;20029;-22
2022/07/07 09:39:14;;;;;;;0.73;0.50;;;;;;;19.69;52.83;97296.09;10390172;28;20034;-23
2022/07/07 09:44:19;;;;;;;2.90;0.70;;;;;;;19.77;52.81;97297.81;10394752;28;20026;-22
2022/07/07 09:49:20;;;;;;;0.88;0.60;;;;;;;19.72;52.48;97307.13;10393867;28;20483;-22
2022/07/07 09:54:20;;;;;;;0.80;0.50;;;;;;;19.66;52.62;97313.88;10385804;28;20030;-21
2022/07/07 09:59:21;;;;;;;1.30;0.50;;;;;;;19.65;52.54;97312.16;10390249;28;20037;-23
2022/07/07 10:04:22;;;;;;;0.50;0.50;;;;;;;19.64;52.91;97318.09;10396610;28;20125;-22
2022/07/07 10:09:25;;;;;;;1.08;0.50;;;;;;;19.62;52.95;97314.69;10388199;28;20033;-23
2022/07/07 10:14:33;;;;;;;0.80;0.52;;;;;;;19.62;52.90;97319.78;10404682;28;20419;-22
2022/07/07 10:19:33;;;;;;;1.42;0.63;;;;;;;19.63;53.05;97326.53;10397272;28;20025;-24
2022/07/07 10:24:35;;;;;;;0.87;0.53;;;;;;;19.64;52.99;97324.03;10392422;28;20519;-23
2022/07/07 10:29:49;;;;;;;0.68;0.50;;;;;;;19.63;53.05;97324.00;10397787;28;20563;-23
2022/07/07 10:34:54;;;;;;;1.27;0.80;;;;;;;19.70;53.47;97308.81;10388061;28;20044;-21
2022/07/07 10:39:56;;;;;;;1.83;0.82;;;;;;;19.82;53.26;97297.84;10393405;28;20039;-20
2022/07/07 10:44:57;;;;;;;3.08;0.70;;;;;;;19.78;53.22;97294.47;10400887;28;20480;-23
2022/07/07 10:50:00;;;;;;;1.83;0.90;;;;;;;19.70;52.99;97302.88;10397996;28;20551;-21
2022/07/07 10:55:03;;;;;;;5.05;1.40;;;;;;;19.66;53.26;97296.94;10388976;28;20037;-22
2022/07/07 11:00:19;;;;;;;6.45;1.50;;;;;;;19.63;53.47;97286.78;10392245;28;20091;-22
2022/07/07 11:05:19;;;;;;;3.10;1.38;;;;;;;19.65;53.60;97304.53;10398431;28;20125;-23
2022/07/07 11:10:19;;;;;;;1.77;0.90;;;;;;;19.59;53.61;97294.38;10388561;28;20067;-23
2022/07/07 11:15:30;;;;;;;5.47;1.20;;;;;;;19.65;53.69;97309.63;10391391;28;20096;-22
2022/07/07 11:20:31;;;;;;;2.72;1.50;;;;;;;19.64;53.64;97307.91;10385342;28;20631;-22
2022/07/07 11:25:33;;;;;;;7.00;2.50;;;;;;;19.66;53.73;97321.50;10389575;28;20026;-23
2022/07/07 11:30:33;;;;;;;5.88;1.60;;;;;;;19.73;53.97;97330.81;10389775;28;20072;-22
2022/07/07 11:35:37;;;;;;;8.93;1.25;;;;;;;19.88;53.84;97330.91;10388742;28;20561;-22
2022/07/07 11:40:39;;;;;;;6.95;1.70;;;;;;;19.87;53.41;97322.44;10387580;28;20037;-23
2022/07/07 11:45:39;;;;;;;2.90;1.20;;;;;;;19.74;53.31;97319.81;10389296;28;20049;-23
2022/07/07 11:50:40;;;;;;;3.13;1.57;;;;;;;19.72;53.66;97316.44;10386426;28;20037;-23
2022/07/07 11:55:42;;;;;;;2.17;1.40;;;;;;;19.70;53.63;97323.19;10385206;28;20295;-22
2022/07/07 12:00:42;;;;;;;5.00;1.60;;;;;;;19.68;53.80;97312.19;10376475;28;20119;-22
2022/07/07 12:05:46;;;;;;;2.35;1.17;;;;;;;19.68;53.77;97322.34;10380905;28;20088;-22
2022/07/07 12:10:51;;;;;;;3.80;1.27;;;;;;;19.69;53.73;97316.44;10383299;28;20044;-24
2022/07/07 12:15:53;;;;;;;1.92;1.10;;;;;;;19.68;53.68;97315.56;10381298;28;20088;-22
2022/07/07 12:21:02;;;;;;;4.55;1.55;;;;;;;19.67;53.88;97311.31;10383272;28;20041;-24
2022/07/07 12:26:07;;;;;;;6.65;2.85;;;;;;;19.68;53.99;97315.56;10378945;28;20359;-23
2022/07/07 12:31:09;;;;;;;58.50;23.98;;;;;;;19.90;54.08;97307.19;10384123;28;20496;-22
2022/07/07 12:36:12;;;;;;;30.15;13.45;;;;;;;19.95;53.54;97314.84;10379735;28;20115;-24
2022/07/07 12:41:24;;;;;;;14.93;6.93;;;;;;;19.84;53.60;97311.41;10381116;28;20496;-22
2022/07/07 12:46:33;;;;;;;10.00;4.35;;;;;;;19.80;53.72;97324.94;10387734;28;20063;-22
2022/07/07 12:51:34;;;;;;;10.88;5.25;;;;;;;19.77;53.83;97322.41;10388816;28;20022;-22
2022/07/07 12:56:38;;;;;;;18.00;5.38;;;;;;;19.75;54.97;97326.63;10387146;28;20037;-23
2022/07/07 13:01:39;;;;;;;9.93;5.25;;;;;;;19.77;54.82;97332.56;10391002;28;20072;-22
2022/07/07 13:06:39;;;;;;;12.37;4.73;;;;;;;19.76;54.38;97335.94;10395282;28;20125;-22
2022/07/07 13:11:41;;;;;;;8.17;4.47;;;;;;;19.77;54.38;97330.00;10389592;28;20034;-22
2022/07/07 13:16:41;;;;;;;6.32;3.67;;;;;;;19.78;54.38;97326.63;10392871;28;20030;-22
2022/07/07 13:21:42;;;;;;;8.75;3.97;;;;;;;19.77;54.42;97330.84;10389456;28;20056;-23
2022/07/07 13:26:43;;;;;;;23.95;6.30;;;;;;;19.95;54.40;97337.72;10395295;28;20045;-21
2022/07/07 13:31:44;;;;;;;13.03;4.70;;;;;;;20.03;55.11;97336.06;10392298;28;20108;-22
2022/07/07 13:36:44;;;;;;;5.97;3.13;;;;;;;19.92;54.50;97335.16;10388565;28;20299;-22
2022/07/07 13:41:45;;;;;;;7.73;2.40;;;;;;;19.85;54.31;97339.34;10393802;28;20037;-22
2022/07/07 13:46:45;;;;;;;6.97;2.90;;;;;;;19.83;54.34;97330.88;10396190;28;20042;-22
2022/07/07 13:51:46;;;;;;;6.05;2.70;;;;;;;19.82;54.42;97341.03;10401571;28;20478;-22
2022/07/07 13:56:46;;;;;;;8.73;2.70;;;;;;;19.82;54.44;97344.44;10394240;28;20026;-22
2022/07/07 14:01:47;;;;;;;5.60;2.97;;;;;;;19.81;54.45;97339.34;10395860;28;20527;-22
2022/07/07 14:06:47;;;;;;;6.20;2.67;;;;;;;19.80;54.54;97345.25;10394797;28;20508;-24
2022/07/07 14:11:48;;;;;;;7.83;2.77;;;;;;;19.65;54.33;97329.94;10395916;28;20327;-22
2022/07/07 14:16:48;;;;;;;6.13;2.30;;;;;;;19.80;54.46;97351.22;10398373;28;20352;-22
2022/07/07 14:21:48;;;;;;;5.90;2.30;;;;;;;19.94;55.57;97359.72;10400883;28;20041;-23
2022/07/07 14:26:49;;;;;;;6.63;3.00;;;;;;;20.05;55.57;97362.34;10388991;28;20088;-22
2022/07/07 14:31:49;;;;;;;4.35;1.90;;;;;;;19.96;54.21;97368.22;10403037;28;20137;-23
2022/07/07 14:36:50;;;;;;;8.07;2.33;;;;;;;19.87;54.53;97368.19;10399628;28;20042;-22
2022/07/07 14:41:51;;;;;;;7.63;2.30;;;;;;;19.86;54.49;97370.72;10389796;28;20041;-22
2022/07/07 14:46:52;;;;;;;5.80;2.20;;;;;;;19.81;54.85;97377.44;10396823;28;20375;-22
2022/07/07 14:51:52;;;;;;;5.40;2.10;;;;;;;19.83;54.58;97378.34;10395965;28;20041;-21
2022/07/07 14:56:53;;;;;;;6.85;1.63;;;;;;;19.87;55.42;97374.94;10386201;28;20124;-24
2022/07/07 15:01:53;;;;;;;2.70;1.60;;;;;;;19.81;54.67;97378.31;10394383;28;20042;-23
2022/07/07 15:06:53;;;;;;;4.50;1.80;;;;;;;19.83;54.68;97383.41;10392902;28;20072;-23
2022/07/07 15:11:55;;;;;;;8.03;1.60;;;;;;;19.83;54.84;97381.72;10398406;28;20284;-23
2022/07/07 15:16:55;;;;;;;4.38;1.88;;;;;;;19.92;54.95;97386.84;10396402;28;20296;-22
2022/07/07 15:21:56;;;;;;;8.50;2.10;;;;;;;20.08;55.79;97390.34;10383658;28;20041;-21
2022/07/07 15:26:56;;;;;;;3.67;1.60;;;;;;;20.07;54.87;97386.06;10402121;28;20851;-23
2022/07/07 15:31:57;;;;;;;2.83;1.60;;;;;;;19.94;54.77;97386.84;10392593;28;20045;-24
2022/07/07 15:36:58;;;;;;;7.18;1.40;;;;;;;19.88;54.71;97384.28;10396462;28;20291;-22
2022/07/07 15:41:58;;;;;;;8.18;1.50;;;;;;;19.85;54.85;97387.63;10395014;28;20574;-23
2022/07/07 15:46:58;;;;;;;4.97;2.20;;;;;;;19.89;55.86;97388.50;10400505;28;20039;-22
2022/07/07 15:51:59;;;;;;;6.40;1.77;;;;;;;19.96;56.42;97392.78;10394462;28;20428;-24
2022/07/07 15:56:59;;;;;;;3.70;1.30;;;;;;;19.93;55.60;97398.69;10390447;28;20033;-22
2022/07/07 16:02:00;;;;;;;3.10;1.73;;;;;;;19.95;55.00;97393.63;10396868;28;20046;-24
2022/07/07 16:07:01;;;;;;;3.67;1.70;;;;;;;20.01;54.87;97386.03;10399199;28;20299;-22
2022/07/07 16:12:04;;;;;;;3.47;1.58;;;;;;;20.02;54.92;97391.09;10398640;28;20041;-21
2022/07/07 16:17:05;;;;;;;6.03;1.75;;;;;;;20.13;55.57;97381.03;10398637;28;20025;-23
2022/07/07 16:22:06;;;;;;;3.08;1.50;;;;;;;20.16;54.80;97392.06;10393485;28;20026;-22
2022/07/07 16:27:06;;;;;;;2.17;1.30;;;;;;;20.10;54.62;97392.03;10394061;28;20025;-23
2022/07/07 16:32:07;;;;;;;6.53;1.65;;;;;;;20.08;54.69;97398.81;10392619;28;20025;-22
2022/07/07 16:37:08;;;;;;;1.77;1.17;;;;;;;20.08;55.00;97393.72;10394523;28;20033;-22
2022/07/07 16:42:08;;;;;;;3.57;1.87;;;;;;;20.06;54.79;97386.94;10389859;28;20091;-21
2022/07/07 16:47:08;;;;;;;2.20;1.10;;;;;;;20.04;55.02;97394.56;10398504;28;20732;-21
2022/07/07 16:52:10;;;;;;;1.70;1.25;;;;;;;20.08;54.70;97395.44;10385988;28;20376;-22
2022/07/07 16:57:11;;;;;;;4.28;1.27;;;;;;;20.09;54.86;97394.59;10384110;28;20040;-23
2022/07/07 17:02:11;;;;;;;2.72;1.48;;;;;;;20.06;55.04;97405.59;10384832;28;20037;-21
2022/07/07 17:07:12;;;;;;;4.00;1.30;;;;;;;20.05;54.81;97414.06;10387307;28;20057;-21
2022/07/07 17:12:12;;;;;;;6.93;1.20;;;;;;;20.19;57.62;97426.81;10387110;28;20063;-22
2022/07/07 17:17:13;;;;;;;3.75;1.20;;;;;;;20.21;55.81;97430.22;10393900;28;20483;-21
2022/07/07 17:22:13;;;;;;;1.70;0.85;;;;;;;20.13;55.00;97436.97;10396573;28;20030;-21
2022/07/07 17:27:13;;;;;;;2.63;1.33;;;;;;;20.06;55.08;97436.09;10404896;28;20087;-22
2022/07/07 17:32:14;;;;;;;1.90;0.80;;;;;;;20.06;55.17;97441.16;10402240;28;20573;-22
2022/07/07 17:37:16;;;;;;;4.03;1.20;;;;;;;20.04;54.82;97445.41;10402575;28;20527;-23
2022/07/07 17:42:16;;;;;;;1.73;1.30;;;;;;;20.05;55.20;97446.25;10399180;28;20053;-22
2022/07/07 17:47:17;;;;;;;4.88;1.33;;;;;;;20.04;55.20;97452.13;10399853;28;20446;-23
2022/07/07 17:52:17;;;;;;;1.20;0.98;;;;;;;20.02;55.53;97454.66;10396016;28;20408;-24
2022/07/07 17:57:18;;;;;;;1.10;0.90;;;;;;;20.01;55.39;97467.38;10400627;28;20033;-21
2022/07/07 18:02:18;;;;;;;1.33;1.20;;;;;;;20.03;55.15;97473.31;10400053;28;20087;-21
2022/07/07 18:07:19;;;;;;;1.60;1.30;;;;;;;20.18;57.88;97473.44;10397160;28;20128;-22
2022/07/07 18:12:20;;;;;;;2.60;0.90;;;;;;;20.23;56.95;97477.69;10397200;28;20299;-21
2022/07/07 18:17:20;;;;;;;1.25;0.88;;;;;;;20.14;55.04;97487.81;10400390;28;20091;-21
2022/07/07 18:22:20;;;;;;;1.70;0.95;;;;;;;20.09;55.10;97496.28;10388089;28;20547;-21
2022/07/07 18:27:21;;;;;;;2.47;1.23;;;;;;;20.07;55.18;97498.81;10407134;28;20091;-22
2022/07/07 18:32:21;;;;;;;1.83;1.13;;;;;;;20.05;55.25;97505.56;10396494;28;20030;-21
2022/07/07 18:37:22;;;;;;;1.77;0.90;;;;;;;19.96;55.22;97504.63;10399808;28;20060;-21
2022/07/07 18:42:22;;;;;;;2.22;1.00;;;;;;;19.98;55.47;97508.00;10392348;28;20037;-24
2022/07/07 18:47:23;;;;;;;2.10;1.10;;;;;;;19.89;55.42;97500.31;10392218;28;20491;-24
2022/07/07 18:52:23;;;;;;;1.42;0.80;;;;;;;20.02;55.29;97530.09;10398623;28;20499;-23
2022/07/07 18:57:24;;;;;;;1.53;0.83;;;;;;;20.03;55.43;97531.78;10375387;28;20030;-23
2022/07/07 19:02:24;;;;;;;7.88;1.70;;;;;;;20.13;56.79;97536.13;10374139;28;20060;-22
2022/07/07 19:07:25;;;;;;;5.13;1.10;;;;;;;20.24;56.97;97537.03;10378785;28;20026;-25
2022/07/07 19:12:25;;;;;;;4.47;1.02;;;;;;;20.16;55.44;97543.75;10364352;28;20120;-26
2022/07/07 19:17:25;;;;;;;5.63;1.17;;;;;;;20.10;55.44;97538.66;10368911;28;20036;-23
2022/07/07 19:22:26;;;;;;;5.10;1.17;;;;;;;20.01;55.45;97533.47;10379981;28;20353;-24
2022/07/07 19:27:26;;;;;;;8.10;1.40;;;;;;;20.03;55.45;97552.13;10395699;28;20280;-22
2022/07/07 19:32:26;;;;;;;5.67;1.57;;;;;;;20.04;55.46;97556.38;10394833;28;20476;-22
2022/07/07 19:37:27;;;;;;;3.60;1.20;;;;;;;20.02;55.45;97555.50;10375594;28;20512;-22
2022/07/07 19:42:28;;;;;;;4.23;1.23;;;;;;;19.99;55.69;97560.53;10389413;28;20029;-24
2022/07/07 19:47:28;;;;;;;3.42;1.10;;;;;;;20.00;55.53;97572.44;10399345;28;20291;-22
2022/07/07 19:52:29;;;;;;;3.65;1.08;;;;;;;19.98;55.45;97574.97;10387160;28;20034;-23
2022/07/07 19:57:29;;;;;;;2.83;1.20;;;;;;;20.08;56.87;97576.75;10398464;28;20518;-24
2022/07/07 20:02:30;;;;;;;8.13;1.05;;;;;;;20.09;55.95;97588.63;10395988;28;20288;-23
2022/07/07 20:07:31;;;;;;;1.33;0.80;;;;;;;19.52;57.51;97597.41;10392741;28;20061;-22
2022/07/07 20:12:31;;;;;;;1.20;0.77;;;;;;;19.22;58.22;97597.09;10388949;28;20029;-25
2022/07/07 20:17:31;;;;;;;1.17;0.87;;;;;;;19.17;58.37;97606.31;10393863;28;20059;-23
2022/07/07 20:22:32;;;;;;;5.37;1.23;;;;;;;19.08;58.65;97613.84;10389038;28;20041;-23
2022/07/07 20:27:32;;;;;;;2.72;0.93;;;;;;;19.01;59.11;97614.59;10398749;28;20299;-23
2022/07/07 20:32:35;;;;;;;0.93;0.93;;;;;;;18.95;59.46;97617.06;10384820;28;20088;-21
2022/07/07 20:37:35;;;;;;;2.10;0.80;;;;;;;18.93;59.47;97618.72;10391258;28;20041;-24
2022/07/07 20:42:36;;;;;;;3.00;1.10;;;;;;;19.01;59.10;97627.28;10394132;28;20040;-23
2022/07/07 20:47:39;;;;;;;3.03;1.17;;;;;;;18.96;59.07;97624.69;10397328;28;20033;-24
2022/07/07 20:52:39;;;;;;;3.42;1.08;;;;;;;18.91;58.95;97615.31;10384661;28;20044;-24
2022/07/07 20:57:40;;;;;;;3.45;1.20;;;;;;;18.98;58.92;97630.63;10396242;28;20044;-24
2022/07/07 21:02:40;;;;;;;1.50;0.90;;;;;;;18.96;59.06;97624.69;10391973;28;20029;-24
2022/07/07 21:07:40;;;;;;;1.67;1.00;;;;;;;18.93;59.02;97626.34;10392613;28;20096;-23
2022/07/07 21:12:42;;;;;;;1.43;1.03;;;;;;;18.92;59.13;97638.16;10393769;28;20029;-23
2022/07/07 21:17:42;;;;;;;2.33;1.00;;;;;;;18.90;59.26;97651.66;10391610;28;20034;-23
2022/07/07 21:22:43;;;;;;;1.83;1.10;;;;;;;18.85;59.23;97646.53;10388087;28;20038;-24
2022/07/07 21:27:44;;;;;;;2.25;0.90;;;;;;;18.88;59.47;97660.94;10400691;28;20272;-23
2022/07/07 21:32:45;;;;;;;4.57;1.17;;;;;;;18.86;59.47;97657.53;10390466;28;20065;-24
2022/07/07 21:37:45;;;;;;;2.80;1.00;;;;;;;18.83;59.85;97665.13;10396063;28;20033;-22
2022/07/07 21:42:46;;;;;;;1.52;0.70;;;;;;;18.74;60.11;97657.38;10383785;28;20041;-24
2022/07/07 21:47:46;;;;;;;3.63;1.33;;;;;;;18.82;59.77;97663.41;10395008;28;20033;-23
2022/07/07 21:52:47;;;;;;;4.07;1.08;;;;;;;18.86;59.77;97668.56;10382647;28;20032;-23
2022/07/07 21:57:47;;;;;;;1.20;0.98;;;;;;;18.80;59.82;97657.44;10389170;28;20068;-23
2022/07/07 22:02:48;;;;;;;1.23;1.05;;;;;;;18.84;60.71;97675.25;10390149;28;20122;-24
2022/07/07 22:07:49;;;;;;;2.45;0.98;;;;;;;18.79;60.42;97681.13;10390480;28;20267;-22
2022/07/07 22:12:49;;;;;;;2.08;1.00;;;;;;;18.74;60.29;97682.75;10399004;28;20033;-25
2022/07/07 22:17:50;;;;;;;2.25;0.77;;;;;;;18.76;60.14;97681.09;10397133;28;20116;-24
2022/07/07 22:22:50;;;;;;;1.40;0.90;;;;;;;18.77;60.23;97681.09;10390603;28;20033;-23
2022/07/07 22:27:53;;;;;;;3.63;1.00;;;;;;;18.75;60.39;97689.53;10404417;28;20033;-25
2022/07/07 22:32:54;;;;;;;2.08;0.90;;;;;;;18.73;60.27;97683.56;10395580;28;20303;-24
2022/07/07 22:37:54;;;;;;;5.23;0.90;;;;;;;18.73;60.22;97686.97;10403327;28;20092;-23
2022/07/07 22:42:55;;;;;;;2.30;1.00;;;;;;;18.68;60.46;97680.13;10390909;28;20296;-24
2022/07/07 22:47:55;;;;;;;2.50;0.95;;;;;;;18.75;60.38;97684.47;10399580;28;20160;-23
2022/07/07 22:52:58;;;;;;;1.83;0.90;;;;;;;18.72;60.28;97692.88;10388610;28;20025;-23
2022/07/07 22:57:59;;;;;;;2.65;0.95;;;;;;;18.72;60.19;97692.00;10396458;28;20283;-24
2022/07/07 23:03:00;;;;;;;0.95;0.70;;;;;;;18.68;60.34;97692.81;10396235;28;20152;-23
2022/07/07 23:08:00;;;;;;;1.87;0.90;;;;;;;18.63;60.81;97685.13;10396785;28;20514;-23
2022/07/07 23:13:00;;;;;;;5.30;1.03;;;;;;;18.66;60.85;97684.31;10398150;28;20400;-22
2022/07/07 23:18:01;;;;;;;1.47;0.87;;;;;;;18.64;60.65;97694.44;10395146;28;20516;-24